Time;durP1;ratioP1;P1;durP2;ratioP2;P2;SDS_P1;SDS_P2;PMS_P1;PMS_P2;Temp;Humidity;BMP_temperature;BMP_pressure;BME280_temperature;BME280_humidity;BME280_pressure;Samples;Min_cycle;Max_cycle;Signal;HPM_P1;HPM_P2
2023/12/31 00:02:18;;;;;;;;;8.00;6.00;;;;;10.29;100.00;100078.03;5034965;28;46335;-75
2023/12/31 00:04:44;;;;;;;;;9.67;8.67;;;;;10.17;100.00;100053.03;5040547;28;45520;-75
2023/12/31 00:07:09;;;;;;;;;5.00;3.67;;;;;9.90;100.00;100007.94;5036847;28;46364;-76
2023/12/31 00:09:34;;;;;;;;;3.33;3.33;;;;;9.83;100.00;99998.72;5038580;27;60590;-75
2023/12/31 00:12:00;;;;;;;;;6.00;6.00;;;;;10.02;100.00;100012.03;5038185;28;45367;-75
2023/12/31 00:14:25;;;;;;;;;5.00;5.00;;;;;10.23;100.00;100025.22;5041188;28;45400;-75
2023/12/31 00:16:50;;;;;;;;;5.33;3.67;;;;;9.96;100.00;99996.41;5038084;27;46234;-75
2023/12/31 00:19:16;;;;;;;;;6.33;6.33;;;;;10.19;100.00;100026.56;5038777;28;45325;-76
2023/12/31 00:21:42;;;;;;;;;7.33;6.00;;;;;9.84;100.00;99959.75;5042826;28;45411;-76
2023/12/31 00:24:08;;;;;;;;;5.67;5.67;;;;;9.96;100.00;99977.41;5036445;28;45305;-75
2023/12/31 00:26:33;;;;;;;;;9.00;5.33;;;;;9.96;100.00;99957.56;5036835;27;45467;-75
2023/12/31 00:28:58;;;;;;;;;3.33;2.67;;;;;9.92;100.00;99946.22;5040391;27;45470;-74
2023/12/31 00:31:24;;;;;;;;;6.67;6.67;;;;;9.85;100.00;99939.75;5037818;28;45256;-75
2023/12/31 00:33:50;;;;;;;;;5.67;4.00;;;;;9.76;100.00;99913.59;5038134;28;45218;-75
2023/12/31 00:36:15;;;;;;;;;6.33;5.00;;;;;10.05;100.00;99959.31;5035525;28;47937;-76
2023/12/31 00:38:41;;;;;;;;;8.33;7.00;;;;;10.19;100.00;99971.44;5037433;28;45270;-74
2023/12/31 00:41:06;;;;;;;;;5.67;5.67;;;;;9.90;100.00;99918.38;5039299;28;45490;-74
2023/12/31 00:43:32;;;;;;;;;7.33;5.00;;;;;9.89;100.00;99907.69;5036145;27;45495;-74
2023/12/31 00:45:57;;;;;;;;;7.00;5.67;;;;;9.77;100.00;99896.31;5038284;28;48110;-75
2023/12/31 00:48:22;;;;;;;;;8.00;8.00;;;;;9.82;100.00;99885.78;5031785;28;51969;-74
2023/12/31 00:50:48;;;;;;;;;5.00;5.00;;;;;10.25;100.00;99951.75;5038919;28;45239;-74
2023/12/31 00:53:13;;;;;;;;;3.00;2.67;;;;;9.81;100.00;99869.69;5033478;28;45313;-74
2023/12/31 00:55:38;;;;;;;;;5.33;5.33;;;;;10.20;100.00;99932.41;5035075;27;47480;-74
2023/12/31 00:58:04;;;;;;;;;8.67;8.00;;;;;9.97;100.00;99914.00;5048170;28;45190;-74
2023/12/31 01:00:29;;;;;;;;;8.33;5.33;;;;;9.92;100.00;99870.25;5039956;28;45253;-74
2023/12/31 01:02:54;;;;;;;;;8.00;6.00;;;;;10.20;100.00;99902.56;5035084;27;45359;-74
2023/12/31 01:05:20;;;;;;;;;5.00;5.00;;;;;10.09;100.00;99888.25;5039745;27;45340;-75
2023/12/31 01:07:46;;;;;;;;;8.67;6.00;;;;;10.20;100.00;99894.41;5033586;27;57863;-75
2023/12/31 01:10:11;;;;;;;;;13.33;8.67;;;;;10.33;100.00;99917.34;5036258;27;54563;-76
2023/12/31 01:12:36;;;;;;;;;6.00;6.00;;;;;10.08;100.00;99853.97;5033736;28;45390;-75
2023/12/31 01:15:02;;;;;;;;;5.00;5.00;;;;;10.20;100.00;99853.69;5038808;27;46978;-74
2023/12/31 01:17:28;;;;;;;;;5.67;5.00;;;;;9.35;100.00;99709.25;5035431;28;46552;-75
2023/12/31 01:19:53;;;;;;;;;5.00;5.00;;;;;10.35;100.00;99871.03;5039522;27;45951;-75
2023/12/31 01:22:18;;;;;;;;;8.33;5.33;;;;;10.13;100.00;99839.91;5037609;28;45513;-74
2023/12/31 01:24:44;;;;;;;;;4.00;4.00;;;;;10.20;100.00;99845.56;5039342;28;46378;-75
2023/12/31 01:27:09;;;;;;;;;8.67;8.67;;;;;9.79;100.00;99771.38;5034683;28;45596;-73
2023/12/31 01:29:37;;;;;;;;;5.00;5.00;;;;;9.08;100.00;99648.00;5039764;28;45483;-74
2023/12/31 01:32:03;;;;;;;;;7.67;7.67;;;;;10.06;100.00;99800.91;5035112;28;45453;-75
2023/12/31 01:34:28;;;;;;;;;7.33;7.33;;;;;9.50;100.00;99694.00;5039011;27;45235;-74
2023/12/31 01:36:54;;;;;;;;;8.00;7.33;;;;;10.13;100.00;99791.91;5036487;28;45509;-75
2023/12/31 01:39:19;;;;;;;;;8.67;8.67;;;;;10.15;100.00;99803.44;5038266;28;45372;-74
2023/12/31 01:41:44;;;;;;;;;4.67;4.67;;;;;10.30;100.00;99816.38;5037700;27;46023;-74
2023/12/31 01:44:10;;;;;;;;;5.67;5.33;;;;;10.15;100.00;99789.84;5038617;28;46640;-74
2023/12/31 01:46:35;;;;;;;;;6.00;6.00;;;;;10.39;100.00;99799.06;5036896;28;45222;-74
2023/12/31 01:49:01;;;;;;;;;8.67;6.33;;;;;10.34;100.00;99807.72;5038089;28;45408;-74
2023/12/31 01:51:29;;;;;;;;;7.67;7.67;;;;;10.38;100.00;99794.63;5033024;28;45376;-74
2023/12/31 01:53:58;;;;;;;;;6.00;6.00;;;;;10.14;100.00;99771.06;5035847;28;46120;-74
2023/12/31 01:56:24;;;;;;;;;8.33;6.00;;;;;10.13;100.00;99756.63;5046072;28;45403;-74
2023/12/31 01:58:50;;;;;;;;;9.00;5.67;;;;;10.28;100.00;99755.97;5035654;28;45260;-74
2023/12/31 02:01:17;;;;;;;;;6.00;6.00;;;;;10.25;100.00;99765.28;5037326;28;45211;-74
2023/12/31 02:03:43;;;;;;;;;6.00;4.33;;;;;10.45;100.00;99784.78;5036481;28;45406;-74
2023/12/31 02:06:08;;;;;;;;;5.00;5.00;;;;;10.32;100.00;99750.03;5037640;28;45342;-74
2023/12/31 02:08:35;;;;;;;;;9.00;8.00;;;;;10.48;100.00;99743.72;5036097;27;51669;-74
2023/12/31 02:11:02;;;;;;;;;7.33;7.00;;;;;10.01;100.00;99664.84;5039433;28;45368;-74
2023/12/31 02:13:27;;;;;;;;;24.33;20.33;;;;;10.13;100.00;99687.94;5035357;28;46680;-74
2023/12/31 02:15:53;;;;;;;;;53.75;39.00;;;;;10.14;100.00;99687.75;5038749;27;45331;-74
2023/12/31 02:18:18;;;;;;;;;24.33;21.33;;;;;9.98;100.00;99657.06;5033305;27;45546;-74
2023/12/31 02:20:44;;;;;;;;;39.33;34.67;;;;;10.35;100.00;99722.53;5039416;27;45187;-74
2023/12/31 02:23:09;;;;;;;;;18.67;18.67;;;;;10.35;100.00;99713.53;5038233;28;45574;-74
2023/12/31 02:25:38;;;;;;;;;19.33;17.67;;;;;10.09;100.00;99657.56;5036609;28;45195;-74
2023/12/31 02:28:07;;;;;;;;;10.00;9.33;;;;;10.48;100.00;99706.56;5036114;28;45388;-74
2023/12/31 02:30:32;;;;;;;;;8.00;8.00;;;;;9.83;100.00;99572.81;5042066;28;45501;-74
2023/12/31 02:32:57;;;;;;;;;8.00;8.00;;;;;10.05;100.00;99634.50;5036658;28;45530;-75
2023/12/31 02:35:23;;;;;;;;;11.67;11.67;;;;;10.00;100.00;99633.34;5040199;28;55189;-74
2023/12/31 02:37:48;;;;;;;;;11.00;9.00;;;;;9.99;100.00;99626.22;5037795;28;45288;-75
2023/12/31 02:40:13;;;;;;;;;8.00;5.00;;;;;10.12;100.00;99638.22;5041126;27;45499;-74
2023/12/31 02:42:39;;;;;;;;;14.67;10.00;;;;;10.44;100.00;99694.38;5048767;27;46040;-74
2023/12/31 02:45:04;;;;;;;;;8.33;8.00;;;;;9.97;100.00;99601.94;5063613;27;45229;-74
2023/12/31 02:47:30;;;;;;;;;9.00;8.33;;;;;10.13;100.00;99617.34;5038266;28;45294;-74
2023/12/31 02:49:55;;;;;;;;;11.33;8.33;;;;;10.11;100.00;99620.25;5042122;28;45294;-74
2023/12/31 02:52:20;;;;;;;;;5.00;5.00;;;;;10.41;100.00;99653.13;5038893;28;54386;-73
2023/12/31 02:54:46;;;;;;;;;8.33;6.00;;;;;10.30;100.00;99631.78;5041481;28;56753;-74
2023/12/31 02:57:11;;;;;;;;;8.00;8.00;;;;;10.34;100.00;99638.53;5037015;28;45422;-74
2023/12/31 02:59:37;;;;;;;;;4.00;3.00;;;;;10.54;100.00;99670.56;5041726;28;45333;-74
2023/12/31 03:02:04;;;;;;;;;5.00;5.00;;;;;10.35;100.00;99623.94;5037685;28;46614;-75
2023/12/31 03:04:30;;;;;;;;;5.00;5.00;;;;;10.70;100.00;99663.38;5041234;28;46562;-74
2023/12/31 03:06:55;;;;;;;;;6.33;4.00;;;;;10.43;100.00;99610.34;5036397;28;45305;-74
2023/12/31 03:09:23;;;;;;;;;3.67;3.33;;;;;10.71;100.00;99668.63;5036499;28;45262;-74
2023/12/31 03:11:50;;;;;;;;;4.00;4.00;;;;;10.80;100.00;99653.16;5039149;28;45307;-75
2023/12/31 03:14:16;;;;;;;;;6.00;6.00;;;;;10.83;100.00;99663.66;5038873;27;45306;-76
2023/12/31 03:16:45;;;;;;;;;4.00;4.00;;;;;10.35;100.00;99573.22;5037371;28;46601;-74
2023/12/31 03:19:15;;;;;;;;;6.00;4.00;;;;;10.23;100.00;99543.91;5040950;28;45304;-74
2023/12/31 03:21:40;;;;;;;;;6.67;5.00;;;;;10.76;100.00;99616.47;5053702;28;45454;-74
2023/12/31 03:24:07;;;;;;;;;5.67;4.00;;;;;10.97;100.00;99626.72;5037746;28;45246;-75
2023/12/31 03:26:32;;;;;;;;;4.00;4.00;;;;;10.52;100.00;99530.53;5041003;27;45345;-74
2023/12/31 03:28:58;;;;;;;;;3.00;3.00;;;;;10.72;100.00;99586.13;5020466;28;45473;-75
2023/12/31 03:31:23;;;;;;;;;5.00;5.00;;;;;10.93;100.00;99599.06;5037496;28;46828;-73
2023/12/31 03:33:48;;;;;;;;;3.33;2.33;;;;;10.76;100.00;99560.28;5036559;28;51323;-73
2023/12/31 03:36:14;;;;;;;;;6.00;4.33;;;;;10.78;100.00;99563.66;5038591;28;45240;-74
2023/12/31 03:38:39;;;;;;;;;8.33;5.33;;;;;10.39;100.00;99481.38;5039479;28;45611;-74
2023/12/31 03:41:05;;;;;;;;;3.67;3.33;;;;;10.34;100.00;99460.22;5040448;28;46270;-74
2023/12/31 03:43:30;;;;;;;;;4.00;2.67;;;;;11.01;100.00;99579.16;5034167;28;45719;-74
2023/12/31 03:45:57;;;;;;;;;2.67;2.67;;;;;11.00;100.00;99542.13;5038973;28;45534;-75
2023/12/31 03:48:22;;;;;;;;;3.33;3.33;;;;;11.13;100.00;99561.41;5038430;27;45410;-75
2023/12/31 03:50:48;;;;;;;;;3.00;3.00;;;;;10.86;100.00;99514.72;5038353;27;47522;-74
2023/12/31 03:53:13;;;;;;;;;0.33;0.33;;;;;10.10;100.00;99416.88;5034928;28;45224;-74
2023/12/31 03:55:38;;;;;;;;;6.00;3.00;;;;;9.84;100.00;99334.94;5040939;28;45314;-75
2023/12/31 03:58:06;;;;;;;;;3.67;3.00;;;;;10.56;100.00;99463.97;5037755;28;45476;-76
2023/12/31 04:00:31;;;;;;;;;4.00;4.00;;;;;10.38;100.00;99463.38;5040427;28;46264;-76
2023/12/31 04:02:57;;;;;;;;;3.00;3.00;;;;;10.46;100.00;99474.22;5036747;28;45373;-75
2023/12/31 04:05:22;;;;;;;;;3.00;3.00;;;;;10.31;100.00;99463.25;5040278;28;45342;-74
2023/12/31 04:07:47;;;;;;;;;1.33;1.33;;;;;10.15;100.00;99439.72;5044617;27;45826;-75
2023/12/31 04:10:13;;;;;;;;;4.33;4.33;;;;;10.69;100.00;99521.28;5038723;28;47840;-76
2023/12/31 04:12:38;;;;;;;;;4.00;2.00;;;;;10.55;100.00;99497.59;5035237;27;45413;-76
2023/12/31 04:15:07;;;;;;;;;5.67;4.00;;;;;10.29;100.00;99446.31;5040685;28;45232;-76
2023/12/31 04:17:33;;;;;;;;;3.00;3.00;;;;;10.32;100.00;99474.97;5036124;28;45523;-76
2023/12/31 04:19:58;;;;;;;;;2.67;2.67;;;;;10.61;100.00;99545.75;5037647;28;46221;-76
2023/12/31 04:22:23;;;;;;;;;3.00;3.00;;;;;9.89;100.00;99430.19;5037061;27;54075;-76
2023/12/31 04:24:49;;;;;;;;;2.00;2.00;;;;;10.07;100.00;99439.78;5038945;28;45268;-76
2023/12/31 04:27:14;;;;;;;;;0.00;0.00;;;;;10.44;100.00;99498.00;5038120;28;45159;-76
2023/12/31 04:29:40;;;;;;;;;4.00;2.00;;;;;10.38;100.00;99469.66;5035884;28;47011;-76
2023/12/31 04:32:06;;;;;;;;;2.00;2.00;;;;;10.29;100.00;99469.91;5037687;27;45470;-76
2023/12/31 04:34:31;;;;;;;;;2.00;2.00;;;;;9.85;100.00;99377.34;5040271;28;45372;-74
2023/12/31 04:36:56;;;;;;;;;2.00;2.00;;;;;9.67;100.00;99388.41;5037389;28;45397;-74
2023/12/31 04:39:22;;;;;;;;;1.00;1.00;;;;;9.93;100.00;99436.97;5039710;28;46524;-75
2023/12/31 04:41:47;;;;;;;;;0.00;0.00;;;;;9.92;100.00;99436.13;5037532;28;45300;-75
2023/12/31 04:44:12;;;;;;;;;0.00;0.00;;;;;9.99;100.00;99466.97;5037300;28;45411;-76
2023/12/31 04:46:38;;;;;;;;;0.00;0.00;;;;;9.63;100.00;99419.63;5037731;28;45370;-75
2023/12/31 04:49:03;;;;;;;;;0.00;0.00;;;;;9.29;100.00;99371.09;5035406;28;62305;-75
2023/12/31 04:51:30;;;;;;;;;0.00;0.00;;;;;9.74;100.00;99471.63;5037544;28;45385;-76
2023/12/31 04:53:56;;;;;;;;;1.00;1.00;;;;;9.56;100.00;99421.34;5036717;28;45530;-76
2023/12/31 04:56:23;;;;;;;;;0.33;0.33;;;;;10.10;100.00;99544.41;5036188;27;45435;-75
2023/12/31 04:58:50;;;;;;;;;0.67;0.00;;;;;8.07;100.00;99206.13;5035521;28;47053;-76
2023/12/31 05:01:16;;;;;;;;;0.00;0.00;;;;;9.70;100.00;99483.00;5037769;27;45406;-75
2023/12/31 05:03:41;;;;;;;;;1.00;1.00;;;;;9.83;100.00;99898.34;5037577;28;45430;-76
2023/12/31 05:06:06;;;;;;;;;0.00;0.00;;;;;-144.62;100.00;60556.56;5039456;28;45247;-77
2023/12/31 05:08:32;;;;;;;;;1.67;0.00;;;;;-144.62;100.00;60556.56;5035582;27;47081;-75
2023/12/31 05:10:58;;;;;;;;;0.00;0.00;;;;;-144.62;100.00;60556.56;5039961;28;45371;-76
2023/12/31 05:13:23;;;;;;;;;1.00;1.00;;;;;-144.62;100.00;60556.56;5035651;28;45676;-76
2023/12/31 05:15:48;;;;;;;;;10.00;8.67;;;;;-144.62;100.00;60556.56;5040190;28;45309;-76
2023/12/31 05:18:14;;;;;;;;;0.00;0.00;;;;;-144.62;100.00;60556.56;5033293;28;45326;-75
2023/12/31 05:20:39;;;;;;;;;0.00;0.00;;;;;-144.62;100.00;60556.56;5040008;28;45304;-77
2023/12/31 05:23:04;;;;;;;;;0.00;0.00;;;;;-144.62;100.00;60556.56;5035115;28;49006;-75
2023/12/31 05:25:30;;;;;;;;;0.33;0.00;;;;;-144.62;100.00;60556.56;5040002;28;45399;-75
2023/12/31 05:27:55;;;;;;;;;1.00;0.00;;;;;-144.62;100.00;60556.56;5032950;27;48495;-76
2023/12/31 05:30:21;;;;;;;;;1.00;1.00;;;;;-144.62;100.00;60556.56;5039088;28;52258;-75
2023/12/31 05:32:46;;;;;;;;;0.00;0.00;;;;;-144.62;100.00;60556.56;5035616;28;45462;-76
2023/12/31 05:35:11;;;;;;;;;0.00;0.00;;;;;-144.62;100.00;60556.56;5039649;28;45529;-74
2023/12/31 05:37:37;;;;;;;;;0.00;0.00;;;;;-144.62;100.00;60556.56;5036326;28;45383;-74
2023/12/31 05:40:04;;;;;;;;;0.00;0.00;;;;;-144.62;100.00;60556.56;5038155;28;47232;-73
2023/12/31 05:42:29;;;;;;;;;0.00;0.00;;;;;-144.62;100.00;60556.56;5036434;28;45359;-74
2023/12/31 05:44:54;;;;;;;;;0.33;0.33;;;;;-144.62;100.00;60556.56;5039540;28;45529;-73
2023/12/31 05:47:20;;;;;;;;;0.00;0.00;;;;;-144.62;100.00;60556.56;5035549;28;47164;-73
2023/12/31 05:49:45;;;;;;;;;1.33;0.00;;;;;-144.62;100.00;60556.56;5035338;28;45378;-73
2023/12/31 05:52:10;;;;;;;;;0.00;0.00;;;;;-144.62;100.00;60556.56;5034382;28;45422;-73
2023/12/31 05:54:39;;;;;;;;;0.67;0.00;;;;;-144.62;100.00;60556.56;5039993;28;45376;-76
2023/12/31 05:57:04;;;;;;;;;0.67;0.67;;;;;-144.62;100.00;60556.56;5038282;27;47064;-75
2023/12/31 05:59:30;;;;;;;;;0.00;0.00;;;;;-144.62;100.00;60556.56;5040732;28;45221;-75
2023/12/31 06:01:56;;;;;;;;;0.00;0.00;;;;;-144.62;100.00;60556.56;5037425;28;45675;-75
2023/12/31 06:04:21;;;;;;;;;0.00;0.00;;;;;-144.62;100.00;60556.56;5041995;27;45674;-75
2023/12/31 06:06:47;;;;;;;;;0.00;0.00;;;;;-144.62;100.00;60556.56;5038403;28;45393;-74
2023/12/31 06:09:12;;;;;;;;;1.00;0.00;;;;;-144.62;100.00;60556.56;5040926;27;46126;-75
2023/12/31 06:11:38;;;;;;;;;0.00;0.00;;;;;-144.62;100.00;60556.56;5040109;28;45334;-75
2023/12/31 06:14:03;;;;;;;;;0.00;0.00;;;;;-144.62;100.00;60556.56;5035700;28;45284;-75
2023/12/31 06:16:29;;;;;;;;;0.00;0.00;;;;;-144.62;100.00;60556.56;5038419;27;46804;-74
2023/12/31 06:18:54;;;;;;;;;0.00;0.00;;;;;-144.62;100.00;60556.56;5040869;28;45186;-74
2023/12/31 06:21:19;;;;;;;;;2.00;0.67;;;;;-144.62;100.00;60556.56;5040160;28;45220;-75
2023/12/31 06:23:44;;;;;;;;;0.00;0.00;;;;;-144.62;100.00;60556.56;5037621;28;45186;-75
2023/12/31 06:26:10;;;;;;;;;1.00;0.00;;;;;-144.62;100.00;60556.56;5040940;28;45590;-75
2023/12/31 06:28:35;;;;;;;;;0.67;0.67;;;;;-144.62;100.00;60556.56;5038969;28;46706;-75
2023/12/31 06:31:00;;;;;;;;;0.00;0.00;;;;;-144.62;100.00;60556.56;5040492;28;45346;-75
2023/12/31 06:33:26;;;;;;;;;0.00;0.00;;;;;-144.62;100.00;60556.56;5037542;28;45636;-74
2023/12/31 06:35:52;;;;;;;;;0.00;0.00;;;;;-144.62;100.00;60556.56;5036838;27;45641;-75
2023/12/31 06:38:17;;;;;;;;;3.00;0.00;;;;;-144.62;100.00;60556.56;5038714;28;48077;-75
2023/12/31 06:40:42;;;;;;;;;0.00;0.00;;;;;-144.62;100.00;60556.56;5038355;28;45396;-75
2023/12/31 06:43:08;;;;;;;;;0.00;0.00;;;;;-144.62;100.00;60556.56;5038481;27;45311;-74
2023/12/31 06:45:33;;;;;;;;;1.00;0.00;;;;;-144.62;100.00;60556.56;5035621;28;45426;-74
2023/12/31 06:47:58;;;;;;;;;0.67;0.00;;;;;-144.62;100.00;60556.56;5039486;28;45455;-75
2023/12/31 06:50:24;;;;;;;;;0.00;0.00;;;;;-144.62;100.00;60556.56;5041314;28;45358;-75
2023/12/31 06:52:49;;;;;;;;;0.00;0.00;;;;;-144.62;100.00;60556.56;5038168;28;45355;-75
2023/12/31 06:55:14;;;;;;;;;0.00;0.00;;;;;-144.62;100.00;60556.56;5037474;28;46832;-75
2023/12/31 06:57:40;;;;;;;;;3.00;0.00;;;;;-144.62;100.00;60556.56;5037380;28;45380;-74
2023/12/31 07:00:07;;;;;;;;;0.00;0.00;;;;;-144.62;100.00;60556.56;5037153;27;45340;-75
2023/12/31 07:02:33;;;;;;;;;0.33;0.00;;;;;-144.62;100.00;60556.56;5037715;28;45294;-75
2023/12/31 07:04:58;;;;;;;;;0.67;0.00;;;;;-144.62;100.00;60556.56;5040958;28;45250;-75
2023/12/31 07:07:24;;;;;;;;;0.00;0.00;;;;;-144.62;100.00;60556.56;5038361;28;45204;-75
2023/12/31 07:09:49;;;;;;;;;0.00;0.00;;;;;-144.62;100.00;60556.56;5036538;27;45696;-74
2023/12/31 07:12:14;;;;;;;;;1.67;0.00;;;;;-144.62;100.00;60556.56;5037438;28;45635;-75
2023/12/31 07:14:40;;;;;;;;;0.00;0.00;;;;;-144.62;100.00;60556.56;5039702;28;45538;-75
2023/12/31 07:17:05;;;;;;;;;0.00;0.00;;;;;-144.62;100.00;60556.56;5039078;28;45330;-75
2023/12/31 07:19:30;;;;;;;;;0.00;0.00;;;;;-144.62;100.00;60556.56;5040662;28;45502;-75
2023/12/31 07:21:55;;;;;;;;;1.00;0.00;;;;;-144.62;100.00;60556.56;5037575;27;45360;-75
2023/12/31 07:24:22;;;;;;;;;0.00;0.00;;;;;-144.62;100.00;60556.56;5039245;28;45363;-75
2023/12/31 07:26:47;;;;;;;;;1.00;1.00;;;;;-144.62;100.00;60556.56;5037877;28;45335;-74
2023/12/31 07:29:13;;;;;;;;;0.00;0.00;;;;;-144.62;100.00;60556.56;5039243;28;45317;-75
2023/12/31 07:31:38;;;;;;;;;0.00;0.00;;;;;-144.62;100.00;60556.56;5039167;28;45335;-75
2023/12/31 07:34:04;;;;;;;;;0.00;0.00;;;;;-144.62;100.00;60556.56;5039077;27;46237;-74
2023/12/31 07:36:30;;;;;;;;;3.00;0.00;;;;;-144.62;100.00;60556.56;5037684;27;45334;-75
2023/12/31 07:38:55;;;;;;;;;0.33;0.33;;;;;-144.62;100.00;60556.56;5039210;28;45443;-75
2023/12/31 07:41:21;;;;;;;;;0.00;0.00;;;;;-144.62;100.00;60556.56;5039530;28;45348;-75
2023/12/31 07:43:46;;;;;;;;;0.00;0.00;;;;;-144.62;100.00;60556.56;5037620;28;59678;-75
2023/12/31 07:46:13;;;;;;;;;0.00;0.00;;;;;-144.62;100.00;60556.56;5039443;28;45315;-74
2023/12/31 07:48:39;;;;;;;;;0.67;0.00;;;;;-144.62;100.00;60556.56;5037935;28;45125;-75
2023/12/31 07:51:06;;;;;;;;;1.00;0.00;;;;;-144.62;100.00;60556.56;5040067;28;45346;-74
2023/12/31 07:53:32;;;;;;;;;1.67;0.00;;;;;-144.62;100.00;60556.56;5035877;28;46356;-76
2023/12/31 07:55:58;;;;;;;;;0.67;0.67;;;;;-144.62;100.00;60556.56;5039766;28;45318;-75
2023/12/31 07:58:26;;;;;;;;;1.00;0.00;;;;;-144.62;100.00;60556.56;5034513;28;45392;-74
2023/12/31 08:00:52;;;;;;;;;0.00;0.00;;;;;-144.62;100.00;60556.56;5040568;27;45465;-74
2023/12/31 08:03:18;;;;;;;;;0.00;0.00;;;;;-144.62;100.00;60556.56;5037060;28;45740;-74
2023/12/31 08:05:43;;;;;;;;;0.00;0.00;;;;;-144.62;100.00;60556.56;5039866;28;48783;-74
2023/12/31 08:08:11;;;;;;;;;1.00;1.00;;;;;-144.62;100.00;60556.56;5034472;27;45264;-74
2023/12/31 08:10:40;;;;;;;;;0.00;0.00;;;;;-144.62;100.00;60556.56;5040400;28;45205;-74
2023/12/31 08:13:06;;;;;;;;;0.00;0.00;;;;;-144.62;100.00;60556.56;5036606;28;46162;-75
2023/12/31 08:15:32;;;;;;;;;1.00;0.00;;;;;-144.62;100.00;60556.56;5039801;28;45314;-75
2023/12/31 08:17:57;;;;;;;;;1.00;0.00;;;;;-144.62;100.00;60556.56;5029901;28;45308;-75
2023/12/31 08:20:22;;;;;;;;;0.00;0.00;;;;;-144.62;100.00;60556.56;5039624;27;45600;-75
2023/12/31 08:22:52;;;;;;;;;0.00;0.00;;;;;-144.62;100.00;60556.56;5035456;28;55816;-75
2023/12/31 08:25:17;;;;;;;;;0.00;0.00;;;;;-144.62;100.00;60556.56;5036691;28;45533;-74
2023/12/31 08:27:43;;;;;;;;;0.00;0.00;;;;;-144.62;100.00;60556.56;5035434;28;45336;-75
2023/12/31 08:30:08;;;;;;;;;2.33;0.00;;;;;-144.62;100.00;60556.56;5039086;28;45712;-74
2023/12/31 08:32:34;;;;;;;;;0.00;0.00;;;;;-144.62;100.00;60556.56;5038883;27;48169;-75
2023/12/31 08:34:59;;;;;;;;;4.33;0.00;;;;;-144.62;100.00;60556.56;5071731;27;45616;-75
2023/12/31 08:37:25;;;;;;;;;1.00;0.00;;;;;-144.62;100.00;60556.56;5038057;28;45472;-75
2023/12/31 08:39:50;;;;;;;;;0.00;0.00;;;;;-144.62;100.00;60556.56;5033864;27;45339;-75
2023/12/31 08:42:15;;;;;;;;;0.00;0.00;;;;;-144.62;100.00;60556.56;5032437;28;47063;-75
2023/12/31 08:44:40;;;;;;;;;1.00;0.67;;;;;-144.62;100.00;60556.56;5038170;28;45412;-75
2023/12/31 08:47:06;;;;;;;;;1.00;1.00;;;;;-144.62;100.00;60556.56;5036476;28;45503;-75
2023/12/31 08:49:31;;;;;;;;;2.00;2.00;;;;;-144.62;100.00;60556.56;5040522;28;45296;-75
2023/12/31 08:51:56;;;;;;;;;2.33;0.00;;;;;-144.62;100.00;60556.56;5034797;28;46742;-75
2023/12/31 08:54:22;;;;;;;;;1.67;1.00;;;;;-144.62;100.00;60556.56;5039210;28;56281;-75
2023/12/31 08:56:48;;;;;;;;;0.67;0.67;;;;;-144.62;100.00;60556.56;5037199;28;45430;-75
2023/12/31 08:59:13;;;;;;;;;0.00;0.00;;;;;-144.62;100.00;60556.56;5051121;28;45486;-75
2023/12/31 09:01:38;;;;;;;;;2.00;2.00;;;;;-144.62;100.00;60556.56;5035858;28;46450;-75
2023/12/31 09:04:04;;;;;;;;;1.00;0.00;;;;;-144.62;100.00;60556.56;5037090;28;45379;-75
2023/12/31 09:06:29;;;;;;;;;4.00;1.00;;;;;-144.62;100.00;60556.56;5037482;28;45317;-75
2023/12/31 09:08:55;;;;;;;;;1.33;0.00;;;;;-144.62;100.00;60556.56;5031671;27;45428;-75
2023/12/31 09:11:21;;;;;;;;;1.00;0.00;;;;;-144.62;100.00;60556.56;5034855;28;59507;-75
2023/12/31 09:13:47;;;;;;;;;0.67;0.67;;;;;-144.62;100.00;60556.56;5035619;28;45234;-75
2023/12/31 09:16:13;;;;;;;;;2.67;0.00;;;;;-144.62;100.00;60556.56;5038010;28;45343;-75
2023/12/31 09:18:38;;;;;;;;;1.00;1.00;;;;;-144.62;100.00;60556.56;5031836;28;45390;-74
2023/12/31 09:21:03;;;;;;;;;1.00;1.00;;;;;-144.62;100.00;60556.56;5037367;28;47343;-75
2023/12/31 09:23:28;;;;;;;;;2.33;0.00;;;;;-144.62;100.00;60556.56;5035599;28;45232;-75
2023/12/31 09:25:55;;;;;;;;;4.00;2.00;;;;;-144.62;100.00;60556.56;5039897;28;45226;-74
2023/12/31 09:28:20;;;;;;;;;4.33;2.00;;;;;-144.62;100.00;60556.56;5034907;28;45489;-74
2023/12/31 09:30:45;;;;;;;;;2.00;1.33;;;;;-144.62;100.00;60556.56;5038136;28;46377;-74
2023/12/31 09:33:11;;;;;;;;;1.67;0.00;;;;;-144.62;100.00;60556.56;5030404;28;45294;-74
2023/12/31 09:35:37;;;;;;;;;1.67;1.67;;;;;-144.62;100.00;60556.56;5038696;28;45372;-73
2023/12/31 09:38:02;;;;;;;;;4.00;1.00;;;;;-144.62;100.00;60556.56;5037314;28;45387;-73
2023/12/31 09:40:27;;;;;;;;;1.00;1.00;;;;;-144.62;100.00;60556.56;5031354;28;46129;-74
2023/12/31 09:42:53;;;;;;;;;2.00;0.33;;;;;-144.62;100.00;60556.56;5034642;28;45429;-75
2023/12/31 09:45:23;;;;;;;;;1.33;1.00;;;;;-144.62;100.00;60556.56;5036294;28;45358;-75
2023/12/31 09:47:50;;;;;;;;;5.00;1.00;;;;;-144.62;100.00;60556.56;5033286;28;45424;-73
2023/12/31 09:50:20;;;;;;;;;1.00;1.00;;;;;-144.62;100.00;60556.56;5034363;28;48481;-75
2023/12/31 09:52:49;;;;;;;;;1.00;1.00;;;;;-144.62;100.00;60556.56;5028041;28;45388;-74
2023/12/31 09:55:16;;;;;;;;;1.00;1.00;;;;;-144.62;100.00;60556.56;5039167;28;45501;-74
2023/12/31 09:57:43;;;;;;;;;1.00;0.67;;;;;-144.62;100.00;60556.56;5035478;28;45570;-74
2023/12/31 10:00:08;;;;;;;;;1.67;1.67;;;;;-144.62;100.00;60556.56;5038193;28;45261;-74
2023/12/31 10:02:34;;;;;;;;;1.00;1.00;;;;;-144.62;100.00;60556.56;5034599;27;45264;-74
2023/12/31 10:05:01;;;;;;;;;4.00;1.33;;;;;-144.62;100.00;60556.56;5038707;28;45399;-75
2023/12/31 10:07:26;;;;;;;;;1.00;1.00;;;;;-144.62;100.00;60556.56;5034439;28;45574;-74
2023/12/31 10:09:54;;;;;;;;;2.00;1.00;;;;;-144.62;100.00;60556.56;5033547;27;47574;-74
2023/12/31 10:12:20;;;;;;;;;1.67;1.67;;;;;-144.62;100.00;60556.56;5035977;28;45550;-75
2023/12/31 10:14:45;;;;;;;;;5.33;2.00;;;;;-144.62;100.00;60556.56;5038301;28;45672;-75
2023/12/31 10:17:11;;;;;;;;;3.00;1.00;;;;;-144.62;100.00;60556.56;5031671;28;45337;-75
2023/12/31 10:19:38;;;;;;;;;3.00;2.00;;;;;-144.62;100.00;60556.56;5038394;28;45486;-77
2023/12/31 10:22:08;;;;;;;;;3.00;2.00;;;;;-144.62;100.00;60556.56;5035556;27;45388;-75
2023/12/31 10:24:33;;;;;;;;;6.00;2.00;;;;;-144.62;100.00;60556.56;5033046;27;45412;-75
2023/12/31 10:27:04;;;;;;;;;3.00;1.00;;;;;-144.62;100.00;60556.56;5028600;28;45249;-75
2023/12/31 10:29:33;;;;;;;;;3.33;1.00;;;;;-144.62;100.00;60556.56;5038081;28;46471;-75
2023/12/31 10:31:58;;;;;;;;;4.00;2.00;;;;;-144.62;100.00;60556.56;5034039;28;45310;-75
2023/12/31 10:34:24;;;;;;;;;3.00;1.67;;;;;-144.62;100.00;60556.56;5037198;28;45423;-75
2023/12/31 10:37:01;;;;;;;;;3.00;1.00;;;;;-144.62;100.00;60556.56;5036770;28;45456;-75
2023/12/31 10:39:33;;;;;;;;;1.00;1.00;;;;;-144.62;100.00;60556.56;5034190;27;46941;-75
2023/12/31 10:42:00;;;;;;;;;3.00;1.00;;;;;-144.62;100.00;60556.56;5033812;28;45572;-75
2023/12/31 10:44:26;;;;;;;;;5.67;2.33;;;;;-144.62;100.00;60556.56;5040185;28;45442;-75
2023/12/31 10:47:16;;;;;;;;;3.33;1.67;;;;;-144.62;100.00;60556.56;5035635;28;47566;-75
2023/12/31 10:49:48;;;;;;;;;4.33;2.00;;;;;-144.62;100.00;60556.56;5030890;28;47229;-75
2023/12/31 10:52:15;;;;;;;;;3.00;2.00;;;;;-144.62;100.00;60556.56;5038667;27;45387;-74
2023/12/31 10:54:47;;;;;;;;;3.67;2.33;;;;;-144.62;100.00;60556.56;5039926;27;45427;-75
2023/12/31 10:57:13;;;;;;;;;2.00;1.00;;;;;-144.62;100.00;60556.56;5037837;28;46020;-74
2023/12/31 10:59:41;;;;;;;;;8.67;3.00;;;;;-144.62;100.00;60556.56;5040940;28;45999;-75
2023/12/31 11:02:17;;;;;;;;;3.67;3.00;;;;;-144.62;100.00;60556.56;5038436;28;45455;-74
2023/12/31 11:04:47;;;;;;;;;2.00;2.00;;;;;-144.62;100.00;60556.56;5033917;27;45465;-75
2023/12/31 11:07:17;;;;;;;;;1.00;0.00;;;;;-144.62;100.00;60556.56;5037419;28;45308;-74
2023/12/31 11:09:43;;;;;;;;;4.67;3.00;;;;;-144.62;100.00;60556.56;5039335;27;46501;-75
2023/12/31 11:12:10;;;;;;;;;3.67;1.33;;;;;-144.62;100.00;60556.56;5038848;28;45319;-74